Latest Coastal Weather Observations for Cerberus

IDV60701

Issued at 6:22 am EDT Tuesday 17 January 2017 (issued every 10 minutes, with the page automatically refreshed every 10 minutes)

About coastal observations | Map of coastal stations | Coastal observations for VIC | Marine services | Other Formats
Station Details ID: 086361 Name: CERBERUS Lat: -38.36 Lon: 145.18 Height: 12.69 m
Data from the previous 72 hours. | See also: Recent months at Cerberus
Date/Time
EDT
Temp
°C
Wind Pressure Rain since
9am
mm
Weather Cloud Vis
km
Sea
Height
m
Swell
Dir  Spd
kts
Gust
kts
hPa Trend Height
m
Period
s
Dir
17/06:00am 16.1 CALM 0 0 1007.8 - 0.0 - - - - - - -
17/05:30am 16.1 N 2 2 1007.7 - 0.0 - - - - - - -
17/05:00am 16.3 CALM 0 0 1007.1 - 0.0 - - - - - - -
17/04:30am 16.4 CALM 0 0 1007.0 - 0.0 - - - - - - -
17/04:00am 16.6 N 1 2 1006.8 - 0.0 - - - - - - -
17/03:30am 16.5 CALM 0 1 1007.0 - 0.0 - - - - - - -
17/03:00am 16.3 CALM 0 0 1007.4 - 0.0 - - - - - - -
17/02:30am 16.8 N 1 2 1007.4 - 0.0 - - - - - - -
17/02:00am 16.8 CALM 0 2 1007.9 - 0.0 - - - - - - -
17/01:30am 16.7 CALM 0 0 1008.2 - 0.0 - - - - - - -
17/01:00am 17.2 N 1 4 1008.6 - 0.0 - - - - - - -
17/12:30am 17.7 CALM 0 1 1009.3 - 0.0 - - - - - - -
17/12:00am 18.1 WSW 2 4 1009.3 - 0.0 - - - - - - -
 
Date/Time
EDT
Temp
°C
Wind Pressure Rain since
9am
mm
Weather Cloud Vis
km
Sea
Height
m
Swell
Dir  Spd
kts
Gust
kts
hPa Trend Height
m
Period
s
Dir
16/11:30pm 18.7 SW 2 2 1009.5 - 0.0 - - - - - - -
16/11:00pm 19.1 SSW 1 3 1010.2 - 0.0 - - - - - - -
16/10:30pm 19.4 SW 4 6 1010.7 - 0.0 - - - - - - -
16/10:00pm 19.2 SW 3 4 1010.5 - 0.0 - - - - - - -
16/09:30pm 19.0 S 3 6 1010.6 - 0.0 - - - - - - -
16/09:00pm 21.2 CALM 0 0 1010.2 - 0.0 - - - - - - -
16/08:30pm 21.9 ESE 2 4 1010.3 - 0.0 - - - - - - -
16/08:00pm 24.2 CALM 0 0 1010.2 - 0.0 - - - - - - -
16/07:30pm 24.0 SSW 2 3 1010.4 - 0.0 - - - - - - -
16/07:00pm 24.1 S 4 6 1010.6 - 0.0 - - - - - - -
16/06:30pm 26.7 S 4 7 1010.2 - 0.0 - - - - - - -
16/06:00pm 26.7 S 4 6 1010.4 - 0.0 - - - - - - -
16/05:30pm 25.9 ESE 5 8 1010.6 - 0.0 - - - - - - -
16/05:00pm 25.9 ESE 6 9 1011.0 - 0.0 - - - - - - -
16/04:30pm 26.3 ESE 5 8 1011.2 - 0.0 - - - - - - -
16/04:00pm 25.4 ESE 7 9 1011.7 - 0.0 - - - - - - -
16/03:30pm 25.6 S 4 7 1012.1 - 0.0 - - - - - - -
16/03:00pm 24.6 SSW 3 5 1012.6 - 0.0 - - - - - - -
16/02:30pm 23.8 SSW 4 7 1013.1 - 0.0 - - - - - - -
16/02:00pm 22.8 SSW 7 11 1013.6 - 0.0 - - - - - - -
16/01:30pm 24.0 SE 5 8 1013.9 - 0.0 - - - - - - -
16/01:00pm 22.9 E 5 7 1014.3 - 0.0 - - - - - - -
16/12:30pm 21.9 NE 3 6 1014.5 - 0.0 - - - - - - -
16/12:00pm 20.7 NE 5 9 1014.5 - 0.0 - - - - - - -
16/11:30am 20.0 NE 6 9 1014.7 - 0.0 - - - - - - -
16/11:00am 19.5 ENE 6 11 1015.2 - 0.0 - - - - - - -
16/10:30am 18.7 NE 2 5 1015.8 - 0.0 - - - - - - -
16/10:00am 18.1 NE 2 5 1015.8 - 0.0 - - - - - - -
16/09:30am 17.6 NE 4 7 1016.0 - 0.0 - - - - - - -
16/09:00am 17.1 NNE 4 7 1016.0 - 0.0 - - - - - - -
16/08:30am 16.7 NE 3 4 1016.2 - 0.0 - - - - - - -
16/08:00am 15.3 NNE 2 4 1016.2 - 0.0 - - - - - - -
16/07:30am 13.8 N 2 3 1016.1 - 0.0 - - - - - - -
16/07:00am 12.5 N 3 4 1016.1 - 0.0 - - - - - - -
16/06:30am 11.9 N 3 5 1015.8 - 0.0 - - - - - - -
16/06:00am 11.8 N 3 5 1015.7 - 0.0 - - - - - - -
16/05:30am 11.6 N 3 5 1015.7 - 0.0 - - - - - - -
16/05:00am 11.7 N 4 5 1015.5 - 0.0 - - - - - - -
16/04:30am 11.6 N 3 5 1015.3 - 0.0 - - - - - - -
16/04:00am 12.1 NNW 3 3 1015.1 - 0.0 - - - - - - -
16/03:30am 11.9 NNW 3 4 1015.2 - 0.0 - - - - - - -
16/03:00am 11.8 CALM 0 0 1015.5 - 0.0 - - - - - - -
16/02:30am 11.5 CALM 0 0 1015.7 - 0.0 - - - - - - -
16/02:00am 10.7 CALM 0 0 1016.2 - 0.0 - - - - - - -
16/01:30am 10.8 CALM 0 0 1016.5 - 0.0 - - - - - - -
16/01:00am 10.4 CALM 0 0 1016.8 - 0.0 - - - - - - -
16/12:30am 11.0 WNW 1 1 1017.0 - 0.0 - - - - - - -
16/12:00am 11.1 WNW 2 2 1017.3 - 0.0 - - - - - - -
 
Date/Time
EDT
Temp
°C
Wind Pressure Rain since
9am
mm
Weather Cloud Vis
km
Sea
Height
m
Swell
Dir  Spd
kts
Gust
kts
hPa Trend Height
m
Period
s
Dir
15/11:30pm 11.8 WNW 1 2 1017.4 - 0.0 - - - - - - -
15/11:00pm 12.0 WNW 1 2 1017.4 - 0.0 - - - - - - -
15/10:30pm 13.0 WNW 1 2 1017.6 - 0.0 - - - - - - -
15/10:00pm 13.6 WNW 1 2 1017.7 - 0.0 - - - - - - -
15/09:30pm 14.6 SSW 2 3 1017.7 - 0.0 - - - - - - -
15/09:00pm 15.2 SSW 2 3 1017.7 - 0.0 - - - - - - -
15/08:30pm 15.8 SSW 3 5 1017.7 - 0.0 - - - - - - -
15/08:00pm 16.5 SSW 5 8 1017.6 - 0.0 - - - - - - -
15/07:30pm 17.3 SSW 7 10 1017.5 - 0.0 - - - - - - -
15/07:00pm 17.4 SSW 7 11 1017.7 - 0.0 - - - - - - -
15/06:30pm 17.3 SSW 8 11 1017.7 - 0.0 - - - - - - -
15/06:00pm 17.7 SSW 9 14 1017.6 - 0.0 - - - - - - -
15/05:30pm 18.1 SSW 11 15 1017.7 - 0.0 - - - - - - -
15/05:00pm 18.1 SSW 11 16 1017.9 - 0.0 - - - - - - -
15/04:30pm 18.7 S 11 16 1018.0 - 0.0 - - - - - - -
15/04:00pm 18.5 SSW 10 14 1018.1 - 0.0 - - - - - - -
15/03:30pm 18.8 S 9 14 1018.3 - 0.0 - - - - - - -
15/03:00pm 18.3 SSW 9 13 1018.7 - 0.0 - - - - - - -
15/02:30pm 17.3 SSW 10 15 1018.8 - 0.0 - - - - - - -
15/02:00pm 17.2 SSW 8 13 1018.7 - 0.0 - - - - - - -
15/01:30pm 18.6 SSW 9 15 1018.8 - 0.0 - - - - - - -
15/01:00pm 17.4 SSW 9 13 1019.0 - 0.0 - - - - - - -
15/12:30pm 17.1 SW 8 11 1018.8 - 0.0 - - - - - - -
15/12:00pm 17.0 SSW 6 10 1018.9 - 0.0 - - - - - - -
15/11:30am 16.8 SSW 7 11 1018.7 - 0.0 - - - - - - -
15/11:00am 16.7 SSW 6 10 1018.6 - 0.0 - - - - - - -
15/10:30am 16.9 WSW 5 8 1018.9 - 0.0 - - - - - - -
15/10:00am 16.4 SW 5 7 1018.8 - 0.0 - - - - - - -
15/09:30am 16.4 WSW 6 9 1018.6 - 0.0 - - - - - - -
15/09:00am 16.1 WSW 4 7 1018.5 - 0.0 - - - - - - -
15/08:30am 15.7 WSW 4 6 1018.3 - 0.0 - - - - - - -
15/08:00am 15.3 W 3 5 1018.0 - 0.0 - - - - - - -
15/07:30am 15.2 W 4 6 1017.8 - 0.0 - - - - - - -
15/07:00am 14.9 WNW 4 6 1017.4 - 0.0 - - - - - - -
15/06:30am 15.0 W 6 10 1017.2 - 0.0 - - - - - - -
15/06:00am 14.9 WNW 4 5 1016.9 - 0.0 - - - - - - -
15/05:30am 14.9 WNW 3 4 1016.6 - 0.0 - - - - - - -
15/05:00am 15.0 WNW 3 5 1016.3 - 0.0 - - - - - - -
15/04:30am 15.1 WSW 6 9 1016.1 - 0.0 - - - - - - -
15/04:00am 15.5 SW 9 13 1015.9 - 0.0 - - - - - - -
15/03:30am 15.3 SW 6 9 1015.7 - 0.0 - - - - - - -
15/03:00am 15.3 WSW 8 13 1015.7 - 0.0 - - - - - - -
15/02:30am 15.8 SW 9 14 1015.8 - 0.0 - - - - - - -
15/02:00am 15.6 WSW 6 13 1015.9 - 0.0 - - - - - - -
15/01:30am 15.2 W 5 7 1015.9 - 0.0 - - - - - - -
15/01:00am 14.7 WSW 7 13 1016.2 - 0.0 - - - - - - -
15/12:30am 15.5 WSW 7 11 1015.9 - 0.0 - - - - - - -
15/12:00am 15.8 WSW 7 11 1016.0 - 0.0 - - - - - - -
 
Date/Time
EDT
Temp
°C
Wind Pressure Rain since
9am
mm
Weather Cloud Vis
km
Sea
Height
m
Swell
Dir  Spd
kts
Gust
kts
hPa Trend Height
m
Period
s
Dir
14/11:30pm 15.8 WSW 9 14 1015.8 - 0.0 - - - - - - -
14/11:00pm 15.9 WSW 10 15 1015.6 - 0.0 - - - - - - -
14/10:30pm 16.0 WSW 10 16 1015.6 - 0.0 - - - - - - -
14/10:00pm 16.0 WSW 9 15 1015.3 - 0.0 - - - - - - -
14/09:30pm 16.0 WSW 11 17 1014.9 - 0.0 - - - - - - -
14/09:00pm 15.9 WSW 12 18 1014.7 - 0.0 - - - - - - -
14/08:30pm 16.0 SW 14 20 1014.3 - 0.0 - - - - - - -
14/08:00pm 17.1 SW 14 22 1013.7 - 0.0 - - - - - - -
14/07:40pm 17.3 SW 15 25 1013.4 - 0.0 - - - - - - -
14/07:30pm 17.5 SW 17 25 1013.3 - 0.0 - - - - - - -
14/07:00pm 17.8 SW 15 21 1012.8 - 0.0 - - - - - - -
14/06:30pm 18.2 SW 17 25 1012.6 - 0.0 - - - - - - -
14/06:06pm 18.6 WSW 15 25 1012.2 - 0.0 - - - - - - -
14/06:00pm 19.3 WSW 14 19 1012.1 - 0.0 - - - - - - -
14/05:30pm 19.6 SW 17 25 1011.7 - 0.0 - - - - - - -
14/05:11pm 20.0 WSW 16 27 1011.4 - 0.0 - - - - - - -
14/05:00pm 19.4 WSW 16 26 1011.5 - 0.0 - - - - - - -
14/04:30pm 19.6 WSW 13 21 1011.3 - 0.0 - - - - - - -
14/04:00pm 20.5 WSW 13 19 1011.0 - 0.0 - - - - - - -
14/03:30pm 19.5 WSW 14 23 1010.7 - 0.0 - - - - - - -
14/03:00pm 21.0 WSW 12 19 1010.1 - 0.0 - - - - - - -
14/02:30pm 19.9 WSW 12 19 1010.0 - 0.0 - - - - - - -
14/02:00pm 18.4 WSW 11 17 1009.8 - 0.0 - - - - - - -
14/01:31pm 17.7 WSW 13 25 1009.8 - 0.0 - - - - - - -
14/01:30pm 18.1 WSW 12 25 1009.8 - 0.0 - - - - - - -
14/01:00pm 19.7 W 11 15 1009.2 - 0.0 - - - - - - -
14/12:30pm 19.6 W 11 17 1008.8 - 0.0 - - - - - - -
14/12:00pm 19.4 WNW 10 16 1008.3 - 0.0 - - - - - - -
14/11:30am 17.9 WNW 12 20 1008.1 - 0.0 - - - - - - -
14/11:00am 18.5 WNW 13 18 1007.6 - 0.0 - - - - - - -
14/10:30am 19.0 WNW 13 23 1007.2 - 0.0 - - - - - - -
14/10:00am 18.3 WNW 13 20 1007.3 - 0.0 - - - - - - -
14/09:30am 16.2 WNW 15 24 1007.3 - 0.0 - - - - - - -
14/09:00am 17.2 WNW 12 18 1006.8 - 10.2 - - - - - - -
14/08:30am 17.0 WNW 13 23 1006.5 - 10.2 - - - - - - -
14/08:00am 16.8 NW 10 16 1006.1 - 10.2 - - - - - - -
14/07:30am 16.1 WNW 11 20 1005.7 - 10.2 - - - - - - -
14/07:00am 15.8 WNW 11 17 1005.2 - 10.2 - - - - - - -
14/06:30am 15.1 NW 9 15 1005.0 - 10.2 - - - - - - -

Other Formats:

Comma delimited format used in spreadsheet applications
http://www.bom.gov.au/fwo/IDV60701/IDV60701.94898.axf

JavaScript Object Notation format (JSON) in row-major order
http://www.bom.gov.au/fwo/IDV60701/IDV60701.94898.json